Time;durP1;ratioP1;P1;durP2;ratioP2;P2;SDS_P1;SDS_P2;PMS_P1;PMS_P2;Temp;Humidity;BMP_temperature;BMP_pressure;BME280_temperature;BME280_humidity;BME280_pressure;Samples;Min_cycle;Max_cycle;Signal;HPM_P1;HPM_P2
2023/10/15 00:00:41;;;;;;;3.08;1.67;;;;;;;;;;5033452;28;20225;-66
2023/10/15 00:03:09;;;;;;;4.43;2.50;;;;;;;;;;5032729;28;20197;-66
2023/10/15 00:05:37;;;;;;;3.70;1.65;;;;;;;;;;5032710;28;20190;-65
2023/10/15 00:08:06;;;;;;;5.43;1.90;;;;;;;;;;5015672;28;20197;-67
2023/10/15 00:10:34;;;;;;;4.00;2.25;;;;;;;;;;5033383;28;20201;-66
2023/10/15 00:13:04;;;;;;;5.78;1.85;;;;;;;;;;5032946;28;20288;-66
2023/10/15 00:15:33;;;;;;;4.30;2.20;;;;;;;;;;5033393;28;20215;-66
2023/10/15 00:18:02;;;;;;;4.65;1.83;;;;;;;;;;5033199;28;20576;-66
2023/10/15 00:20:34;;;;;;;3.00;2.20;;;;;;;;;;5032815;28;20726;-66
2023/10/15 00:23:05;;;;;;;2.67;2.08;;;;;;;;;;5033158;28;20200;-66
2023/10/15 00:25:35;;;;;;;3.47;2.40;;;;;;;;;;5032597;28;20201;-66
2023/10/15 00:28:05;;;;;;;3.20;2.00;;;;;;;;;;5015775;28;20196;-66
2023/10/15 00:30:37;;;;;;;2.20;2.00;;;;;;;;;;5033270;28;20205;-66
2023/10/15 00:33:07;;;;;;;10.40;2.10;;;;;;;;;;5015244;28;20648;-66
2023/10/15 00:35:35;;;;;;;3.65;1.60;;;;;;;;;;5033890;28;20201;-66
2023/10/15 00:38:07;;;;;;;4.18;2.30;;;;;;;;;;4998596;28;20190;-66
2023/10/15 00:40:39;;;;;;;3.67;1.77;;;;;;;;;;4999106;28;20209;-66
2023/10/15 00:43:07;;;;;;;5.78;1.60;;;;;;;;;;5031123;28;20302;-65
2023/10/15 00:45:43;;;;;;;4.93;1.80;;;;;;;;;;5017666;28;20217;-66
2023/10/15 00:48:22;;;;;;;7.65;1.70;;;;;;;;;;5015452;28;20184;-66
2023/10/15 00:50:51;;;;;;;3.65;2.25;;;;;;;;;;5032736;28;20189;-66
2023/10/15 00:53:25;;;;;;;5.05;1.92;;;;;;;;;;5032272;28;20617;-66
2023/10/15 00:55:54;;;;;;;7.32;1.90;;;;;;;;;;5032785;28;20196;-66
2023/10/15 00:58:31;;;;;;;2.35;1.70;;;;;;;;;;5015747;28;20205;-66
2023/10/15 01:03:49;;;;;;;3.70;2.05;;;;;;;;;;5038504;28;20920;-68
2023/10/15 01:06:29;;;;;;;3.80;2.10;;;;;;;;;;5039548;28;20320;-67
2023/10/15 01:08:58;;;;;;;4.15;1.80;;;;;;;;;;5019851;28;20276;-69
2023/10/15 01:11:28;;;;;;;3.38;2.00;;;;;;;;;;5035244;28;20627;-68
2023/10/15 01:13:57;;;;;;;5.57;2.30;;;;;;;;;;5039551;28;20272;-68
2023/10/15 01:16:28;;;;;;;4.00;1.70;;;;;;;;;;5039260;28;20300;-67
2023/10/15 01:19:03;;;;;;;2.30;1.70;;;;;;;;;;5021713;28;20257;-68
2023/10/15 01:21:33;;;;;;;11.52;2.42;;;;;;;;;;5038648;28;20287;-68
2023/10/15 01:24:05;;;;;;;2.88;2.15;;;;;;;;;;5021157;28;20623;-69
2023/10/15 01:26:39;;;;;;;5.45;1.90;;;;;;;;;;5038295;28;20253;-69
2023/10/15 01:29:07;;;;;;;3.53;2.28;;;;;;;;;;5037702;28;20264;-69
2023/10/15 01:31:50;;;;;;;5.30;2.45;;;;;;;;;;5020147;28;20272;-63
2023/10/15 01:34:21;;;;;;;3.70;1.63;;;;;;;;;;5032611;28;20219;-63
2023/10/15 01:36:51;;;;;;;4.38;2.17;;;;;;;;;;5032340;28;20195;-63
2023/10/15 01:39:32;;;;;;;4.57;1.75;;;;;;;;;;5032177;28;20209;-63
2023/10/15 01:42:06;;;;;;;6.57;1.80;;;;;;;;;;4997567;28;20181;-63
2023/10/15 01:44:39;;;;;;;3.63;1.98;;;;;;;;;;5014949;28;20235;-63
2023/10/15 01:47:08;;;;;;;6.93;1.85;;;;;;;;;;5032799;28;20193;-63
2023/10/15 01:49:36;;;;;;;3.20;2.10;;;;;;;;;;5032194;28;20201;-65
2023/10/15 01:52:09;;;;;;;5.30;1.98;;;;;;;;;;5032309;28;20197;-63
2023/10/15 01:54:37;;;;;;;2.85;2.10;;;;;;;;;;5032514;28;20227;-63
2023/10/15 01:57:07;;;;;;;3.95;1.85;;;;;;;;;;5032381;28;20648;-63
2023/10/15 01:59:45;;;;;;;3.42;1.75;;;;;;;;;;5032622;28;20199;-63
2023/10/15 02:02:14;;;;;;;5.18;1.70;;;;;;;;;;5031765;28;20640;-63
2023/10/15 02:04:44;;;;;;;7.03;4.45;;;;;;;;;;5012746;28;20213;-63
2023/10/15 02:07:13;;;;;;;36.95;30.25;;;;;;;;;;5020185;28;20566;-63
2023/10/15 02:09:43;;;;;;;6.32;4.00;;;;;;;;;;5032987;28;20205;-63
2023/10/15 02:12:14;;;;;;;15.82;13.23;;;;;;;;;;5031675;28;20198;-63
2023/10/15 02:14:44;;;;;;;11.52;9.70;;;;;;;;;;5015443;28;20185;-62
2023/10/15 02:17:14;;;;;;;4.82;4.32;;;;;;;;;;5014341;28;20209;-62
2023/10/15 02:19:42;;;;;;;33.95;20.23;;;;;;;;;;5015361;28;20571;-63
2023/10/15 02:22:13;;;;;;;38.90;29.42;;;;;;;;;;5014184;28;20197;-63
2023/10/15 02:24:46;;;;;;;26.65;18.77;;;;;;;;;;5015719;28;20201;-63
2023/10/15 02:27:21;;;;;;;6.22;3.25;;;;;;;;;;5030719;28;20193;-63
2023/10/15 02:29:50;;;;;;;34.20;23.30;;;;;;;;;;5015158;28;20193;-63
2023/10/15 02:32:28;;;;;;;16.40;5.22;;;;;;;;;;5032045;28;20201;-63
2023/10/15 02:34:57;;;;;;;4.15;2.33;;;;;;;;;;5014848;28;20197;-65
2023/10/15 02:37:27;;;;;;;2.60;1.90;;;;;;;;;;5031116;28;20234;-64
2023/10/15 02:39:58;;;;;;;1.90;1.50;;;;;;;;;;5032522;28;20540;-63
2023/10/15 02:42:31;;;;;;;3.15;2.00;;;;;;;;;;5031612;28;20245;-63
2023/10/15 02:45:00;;;;;;;5.53;1.63;;;;;;;;;;5032727;28;20189;-64
2023/10/15 02:47:41;;;;;;;4.20;1.95;;;;;;;;;;5031695;28;20263;-63
2023/10/15 02:50:16;;;;;;;6.97;2.05;;;;;;;;;;5036062;28;20554;-63
2023/10/15 02:52:45;;;;;;;4.10;1.80;;;;;;;;;;5036010;28;20540;-63
2023/10/15 02:55:14;;;;;;;5.22;2.20;;;;;;;;;;5036260;28;20216;-63
2023/10/15 02:57:45;;;;;;;7.25;2.25;;;;;;;;;;5035569;28;20209;-63
2023/10/15 03:00:17;;;;;;;1.80;1.40;;;;;;;;;;5035198;28;20694;-64
2023/10/15 03:02:46;;;;;;;8.70;1.95;;;;;;;;;;5035024;28;20182;-63
2023/10/15 03:05:15;;;;;;;4.30;2.20;;;;;;;;;;5034453;28;20216;-63
2023/10/15 03:07:44;;;;;;;3.13;2.28;;;;;;;;;;5034686;28;20205;-63
2023/10/15 03:10:13;;;;;;;7.53;2.08;;;;;;;;;;5035626;28;20211;-63
2023/10/15 03:12:44;;;;;;;5.93;1.75;;;;;;;;;;5035501;28;20205;-63
2023/10/15 03:15:15;;;;;;;5.40;2.90;;;;;;;;;;5017626;28;20200;-64
2023/10/15 03:17:43;;;;;;;4.72;2.17;;;;;;;;;;5034917;28;20706;-63
2023/10/15 03:20:22;;;;;;;7.63;1.90;;;;;;;;;;5034766;28;20212;-63
2023/10/15 03:22:58;;;;;;;4.05;1.70;;;;;;;;;;5017956;28;20204;-63
2023/10/15 03:25:33;;;;;;;5.82;2.13;;;;;;;;;;5017501;28;20199;-63
2023/10/15 03:28:06;;;;;;;7.53;2.03;;;;;;;;;;5035394;28;20860;-63
2023/10/15 03:30:36;;;;;;;5.57;2.15;;;;;;;;;;5034856;28;20203;-64
2023/10/15 03:33:07;;;;;;;4.22;2.00;;;;;;;;;;5035260;28;20678;-64
2023/10/15 03:35:39;;;;;;;8.75;1.95;;;;;;;;;;5017901;28;20199;-63
2023/10/15 03:38:14;;;;;;;3.50;2.10;;;;;;;;;;5034446;28;20200;-63
2023/10/15 03:40:50;;;;;;;5.40;2.95;;;;;;;;;;5016193;28;20213;-63
2023/10/15 03:43:21;;;;;;;10.27;2.22;;;;;;;;;;5034723;28;20768;-63
2023/10/15 03:45:53;;;;;;;6.85;2.03;;;;;;;;;;5035059;28;20189;-64
2023/10/15 03:48:22;;;;;;;6.32;1.90;;;;;;;;;;5034549;28;20196;-63
2023/10/15 03:50:58;;;;;;;5.82;2.17;;;;;;;;;;5034828;28;20212;-63
2023/10/15 03:53:29;;;;;;;5.32;1.70;;;;;;;;;;5017153;28;20199;-63
2023/10/15 03:55:58;;;;;;;5.65;1.80;;;;;;;;;;5033839;28;20288;-63
2023/10/15 03:58:26;;;;;;;5.93;1.92;;;;;;;;;;5034726;28;20549;-63
2023/10/15 04:01:11;;;;;;;3.70;1.55;;;;;;;;;;5033940;28;20221;-63
2023/10/15 04:03:42;;;;;;;5.15;1.80;;;;;;;;;;5033816;28;20186;-63
2023/10/15 04:06:13;;;;;;;7.40;2.20;;;;;;;;;;5034391;28;20196;-63
2023/10/15 04:08:59;;;;;;;8.80;2.45;;;;;;;;;;5016362;28;20190;-63
2023/10/15 04:11:30;;;;;;;4.82;1.83;;;;;;;;;;5033973;28;20186;-63
2023/10/15 04:14:01;;;;;;;4.40;2.47;;;;;;;;;;5034546;28;20561;-64
2023/10/15 04:16:31;;;;;;;2.17;1.75;;;;;;;;;;5034357;28;20695;-63
2023/10/15 04:19:00;;;;;;;7.63;5.93;;;;;;;;;;5034342;28;20563;-63
2023/10/15 04:21:29;;;;;;;26.88;24.90;;;;;;;;;;5034259;28;20221;-63
2023/10/15 04:23:57;;;;;;;9.40;8.50;;;;;;;;;;5014693;28;20205;-64
2023/10/15 04:26:29;;;;;;;18.52;15.63;;;;;;;;;;5013877;28;20202;-63
2023/10/15 04:28:58;;;;;;;46.15;28.50;;;;;;;;;;5014878;28;20701;-63
2023/10/15 04:31:30;;;;;;;7.20;5.18;;;;;;;;;;5014498;28;20229;-64
2023/10/15 04:34:00;;;;;;;6.53;3.70;;;;;;;;;;5016929;28;20288;-63
2023/10/15 04:36:28;;;;;;;6.05;2.40;;;;;;;;;;5034190;28;20205;-64
2023/10/15 04:39:11;;;;;;;4.53;2.28;;;;;;;;;;5033772;28;20213;-64
2023/10/15 04:41:39;;;;;;;6.07;1.90;;;;;;;;;;5016557;28;20566;-64
2023/10/15 04:44:21;;;;;;;3.35;1.50;;;;;;;;;;5034106;28;20237;-63
2023/10/15 04:46:52;;;;;;;6.93;2.03;;;;;;;;;;5035132;28;20519;-63
2023/10/15 04:49:23;;;;;;;11.45;1.95;;;;;;;;;;5016377;28;20245;-63
2023/10/15 04:51:52;;;;;;;5.05;2.40;;;;;;;;;;5034848;28;20576;-63
2023/10/15 04:54:23;;;;;;;4.43;2.08;;;;;;;;;;4999750;28;20558;-63
2023/10/15 04:56:52;;;;;;;6.00;2.90;;;;;;;;;;5016503;28;20243;-64
2023/10/15 04:59:21;;;;;;;6.30;2.58;;;;;;;;;;5033487;28;20215;-63
2023/10/15 05:01:49;;;;;;;11.02;2.45;;;;;;;;;;5015663;28;20232;-63
2023/10/15 05:04:17;;;;;;;8.43;2.25;;;;;;;;;;5032658;28;20537;-63
2023/10/15 05:06:48;;;;;;;3.60;2.15;;;;;;;;;;5033919;28;20209;-63
2023/10/15 05:09:21;;;;;;;5.57;2.30;;;;;;;;;;5032789;28;20198;-64
2023/10/15 05:11:50;;;;;;;5.30;3.55;;;;;;;;;;5032848;28;20708;-63
2023/10/15 05:14:19;;;;;;;4.53;1.90;;;;;;;;;;5032809;28;20211;-63
2023/10/15 05:16:47;;;;;;;6.70;2.05;;;;;;;;;;5033951;28;20201;-63
2023/10/15 05:19:17;;;;;;;9.30;2.65;;;;;;;;;;5033111;28;20212;-63
2023/10/15 05:21:49;;;;;;;8.80;2.53;;;;;;;;;;5032974;28;20569;-63
2023/10/15 05:24:18;;;;;;;8.13;2.00;;;;;;;;;;5032970;28;20190;-64
2023/10/15 05:26:50;;;;;;;3.70;1.92;;;;;;;;;;5033079;28;20197;-63
2023/10/15 05:29:18;;;;;;;5.43;2.00;;;;;;;;;;5032744;28;20198;-63
2023/10/15 05:31:46;;;;;;;7.53;2.15;;;;;;;;;;5032515;28;20220;-63
2023/10/15 05:34:15;;;;;;;5.43;1.85;;;;;;;;;;5032017;28;20219;-62
2023/10/15 05:36:43;;;;;;;2.42;1.63;;;;;;;;;;5031722;28;20668;-62
2023/10/15 05:39:15;;;;;;;10.70;2.33;;;;;;;;;;5032174;28;20201;-62
2023/10/15 05:41:43;;;;;;;6.05;1.90;;;;;;;;;;5032600;28;20220;-64
2023/10/15 05:44:12;;;;;;;3.00;1.63;;;;;;;;;;5028023;28;20238;-63
2023/10/15 05:46:40;;;;;;;4.00;1.52;;;;;;;;;;5032642;28;20205;-62
2023/10/15 05:49:11;;;;;;;7.60;1.73;;;;;;;;;;5032398;28;20205;-63
2023/10/15 05:51:39;;;;;;;3.85;1.65;;;;;;;;;;5031346;28;20185;-63
2023/10/15 05:54:09;;;;;;;4.75;2.08;;;;;;;;;;5032231;28;20733;-63
2023/10/15 05:56:39;;;;;;;5.47;2.10;;;;;;;;;;5031725;28;20219;-62
2023/10/15 05:59:07;;;;;;;6.88;1.85;;;;;;;;;;5044997;28;20546;-63
2023/10/15 06:01:36;;;;;;;4.13;1.90;;;;;;;;;;5030747;28;20512;-63
2023/10/15 06:04:04;;;;;;;7.90;2.33;;;;;;;;;;5030856;28;20213;-64
2023/10/15 06:06:33;;;;;;;6.22;2.33;;;;;;;;;;5031962;28;20211;-63
2023/10/15 06:09:01;;;;;;;5.57;1.92;;;;;;;;;;5031838;28;20204;-62
2023/10/15 06:11:29;;;;;;;5.30;2.22;;;;;;;;;;5032337;28;20204;-62
2023/10/15 06:13:59;;;;;;;4.47;2.45;;;;;;;;;;5031951;28;20198;-62
2023/10/15 06:16:27;;;;;;;8.85;2.78;;;;;;;;;;5031790;28;20209;-63
2023/10/15 06:18:55;;;;;;;2.38;1.58;;;;;;;;;;5029028;28;20208;-63
2023/10/15 06:21:25;;;;;;;4.30;1.85;;;;;;;;;;5031337;28;20209;-63
2023/10/15 06:23:53;;;;;;;6.47;2.10;;;;;;;;;;5031925;28;20243;-63
2023/10/15 06:26:22;;;;;;;7.13;1.95;;;;;;;;;;5033815;28;20219;-63
2023/10/15 06:28:50;;;;;;;5.00;3.40;;;;;;;;;;5035953;28;20197;-62
2023/10/15 06:31:30;;;;;;;3.15;1.75;;;;;;;;;;5035182;28;20711;-65
2023/10/15 06:33:58;;;;;;;6.65;2.00;;;;;;;;;;5031398;28;20200;-64
2023/10/15 06:36:26;;;;;;;6.15;2.65;;;;;;;;;;5031808;28;20208;-64
2023/10/15 06:38:56;;;;;;;14.30;2.15;;;;;;;;;;5035621;28;20202;-64
2023/10/15 06:41:25;;;;;;;5.30;2.00;;;;;;;;;;5036685;28;20231;-64
2023/10/15 06:43:53;;;;;;;4.63;1.90;;;;;;;;;;5034938;28;20239;-64
2023/10/15 06:46:23;;;;;;;2.95;1.67;;;;;;;;;;5036663;28;20197;-64
2023/10/15 06:48:52;;;;;;;3.63;1.73;;;;;;;;;;5016866;28;20817;-64
2023/10/15 06:51:20;;;;;;;3.40;2.03;;;;;;;;;;5035409;28;20254;-64
2023/10/15 06:53:49;;;;;;;6.00;2.53;;;;;;;;;;5032020;28;20220;-64
2023/10/15 06:56:18;;;;;;;9.73;2.13;;;;;;;;;;5031827;28;20214;-64
2023/10/15 06:58:47;;;;;;;2.65;1.85;;;;;;;;;;5032212;28;20201;-64
2023/10/15 07:01:15;;;;;;;5.45;2.15;;;;;;;;;;5032175;28;20205;-65
2023/10/15 07:03:43;;;;;;;2.78;1.63;;;;;;;;;;5022422;28;20569;-64
2023/10/15 07:06:13;;;;;;;4.72;1.80;;;;;;;;;;5022169;28;20201;-64
2023/10/15 07:08:41;;;;;;;5.15;2.25;;;;;;;;;;5035296;28;20264;-64
2023/10/15 07:11:09;;;;;;;3.88;2.35;;;;;;;;;;5035234;28;20205;-64
2023/10/15 07:13:37;;;;;;;3.08;1.95;;;;;;;;;;5018404;28;20206;-64
2023/10/15 07:16:06;;;;;;;6.15;2.45;;;;;;;;;;5035370;28;20202;-65
2023/10/15 07:18:35;;;;;;;4.93;2.30;;;;;;;;;;5035519;28;20209;-64
2023/10/15 07:21:03;;;;;;;2.75;1.80;;;;;;;;;;5034913;28;20301;-64
2023/10/15 07:23:32;;;;;;;5.40;2.72;;;;;;;;;;5035221;28;20213;-64
2023/10/15 07:26:01;;;;;;;8.40;3.17;;;;;;;;;;5035282;28;20204;-64
2023/10/15 07:28:29;;;;;;;4.45;2.53;;;;;;;;;;5035375;28;20204;-63
2023/10/15 07:30:57;;;;;;;9.65;3.35;;;;;;;;;;5034813;28;20207;-65
2023/10/15 07:33:26;;;;;;;3.13;1.85;;;;;;;;;;5035429;28;20239;-63
2023/10/15 07:35:55;;;;;;;3.67;2.35;;;;;;;;;;5034134;28;20209;-63
2023/10/15 07:38:23;;;;;;;7.18;2.65;;;;;;;;;;5034142;28;20661;-63
2023/10/15 07:40:55;;;;;;;7.50;2.95;;;;;;;;;;5034334;28;20350;-63
2023/10/15 07:43:23;;;;;;;4.93;2.00;;;;;;;;;;5033978;28;20244;-64
2023/10/15 07:45:51;;;;;;;3.78;2.83;;;;;;;;;;5014635;28;20292;-64
2023/10/15 07:48:19;;;;;;;4.03;2.33;;;;;;;;;;5024323;28;20205;-63
2023/10/15 07:50:48;;;;;;;5.35;2.60;;;;;;;;;;5034573;28;20201;-64
2023/10/15 07:53:16;;;;;;;6.72;2.60;;;;;;;;;;5034163;28;20204;-66
2023/10/15 07:55:46;;;;;;;4.68;2.10;;;;;;;;;;5033952;28;20208;-64
2023/10/15 07:58:16;;;;;;;5.85;1.90;;;;;;;;;;5033984;28;20216;-63
2023/10/15 08:00:44;;;;;;;6.35;2.72;;;;;;;;;;5030885;28;20216;-64
2023/10/15 08:03:13;;;;;;;11.77;2.70;;;;;;;;;;5032920;28;20225;-63
2023/10/15 08:05:41;;;;;;;5.63;2.55;;;;;;;;;;5012827;28;20201;-64
2023/10/15 08:08:09;;;;;;;4.22;1.95;;;;;;;;;;5033376;28;20211;-65
2023/10/15 08:10:37;;;;;;;7.03;3.03;;;;;;;;;;5044097;28;20204;-65
2023/10/15 08:13:06;;;;;;;10.40;2.83;;;;;;;;;;5032377;28;20199;-64
2023/10/15 08:15:38;;;;;;;2.50;1.70;;;;;;;;;;5021957;28;20202;-64
2023/10/15 08:18:06;;;;;;;8.38;2.60;;;;;;;;;;5032422;28;20202;-67
2023/10/15 08:20:34;;;;;;;4.75;2.20;;;;;;;;;;5032968;28;20212;-63
2023/10/15 08:23:03;;;;;;;7.45;1.65;;;;;;;;;;5026504;28;20219;-64
2023/10/15 08:25:32;;;;;;;5.90;2.47;;;;;;;;;;5026994;28;20213;-64
2023/10/15 08:28:01;;;;;;;2.58;2.38;;;;;;;;;;5036786;28;20226;-65
2023/10/15 08:30:30;;;;;;;4.10;3.63;;;;;;;;;;5033633;28;20265;-65
2023/10/15 08:33:00;;;;;;;6.30;2.63;;;;;;;;;;5026481;28;20273;-66
2023/10/15 08:35:28;;;;;;;4.18;3.05;;;;;;;;;;5044026;28;20704;-65
2023/10/15 08:37:59;;;;;;;5.30;2.20;;;;;;;;;;5032258;28;20283;-66
2023/10/15 08:40:29;;;;;;;3.60;2.50;;;;;;;;;;5048721;28;20272;-67
2023/10/15 08:42:59;;;;;;;3.13;2.30;;;;;;;;;;5013224;28;20676;-68
2023/10/15 08:45:27;;;;;;;3.87;2.43;;;;;;;;;;5019918;28;20958;-69
2023/10/15 08:47:55;;;;;;;6.33;2.70;;;;;;;;;;5021419;28;20617;-65
2023/10/15 08:50:25;;;;;;;4.20;2.60;;;;;;;;;;5019291;28;21154;-65
2023/10/15 08:52:55;;;;;;;3.10;2.90;;;;;;;;;;5022211;28;21185;-65
2023/10/15 08:55:23;;;;;;;4.20;3.00;;;;;;;;;;5019707;28;20590;-64
2023/10/15 08:57:54;;;;;;;6.57;2.90;;;;;;;;;;5020468;28;20965;-65
2023/10/15 09:00:27;;;;;;;4.47;3.07;;;;;;;;;;5021782;28;20593;-66
2023/10/15 09:02:56;;;;;;;3.87;3.20;;;;;;;;;;5021295;28;20629;-66
2023/10/15 09:05:25;;;;;;;6.47;3.43;;;;;;;;;;5018106;28;20685;-65
2023/10/15 09:07:55;;;;;;;6.00;3.73;;;;;;;;;;5020494;28;20613;-64
2023/10/15 09:10:24;;;;;;;4.87;3.33;;;;;;;;;;5020620;28;20622;-64
2023/10/15 09:12:52;;;;;;;9.50;3.90;;;;;;;;;;5020273;28;20620;-66
2023/10/15 09:15:28;;;;;;;3.30;3.10;;;;;;;;;;5019829;28;20612;-66
2023/10/15 09:17:57;;;;;;;4.17;3.80;;;;;;;;;;5020823;28;20574;-65
2023/10/15 09:20:27;;;;;;;3.50;3.20;;;;;;;;;;5025068;28;20698;-63
2023/10/15 09:22:58;;;;;;;4.97;3.90;;;;;;;;;;5026364;28;20584;-63
2023/10/15 09:25:26;;;;;;;3.30;3.00;;;;;;;;;;5027580;28;20711;-62
2023/10/15 09:27:55;;;;;;;5.73;3.60;;;;;;;;;;5025105;28;20616;-63
2023/10/15 09:30:24;;;;;;;3.70;3.50;;;;;;;;;;5025444;28;20615;-66
2023/10/15 09:32:52;;;;;;;4.33;3.83;;;;;;;;;;5025079;28;20603;-64
2023/10/15 09:35:21;;;;;;;3.77;3.57;;;;;;;;;;5023633;28;20603;-65
2023/10/15 09:37:53;;;;;;;4.63;4.17;;;;;;;;;;5026222;28;20701;-64
2023/10/15 09:40:24;;;;;;;6.93;4.07;;;;;;;;;;5022112;28;20605;-64
2023/10/15 09:42:54;;;;;;;4.97;4.17;;;;;;;;;;5025157;28;20723;-64
2023/10/15 09:45:23;;;;;;;5.43;4.43;;;;;;;;;;5023188;28;20666;-64
2023/10/15 09:47:55;;;;;;;4.13;3.90;;;;;;;;;;5022318;28;20602;-63
2023/10/15 09:50:25;;;;;;;4.33;4.10;;;;;;;;;;5024950;28;20645;-64
2023/10/15 09:52:57;;;;;;;5.20;4.40;;;;;;;;;;5008624;28;20627;-65
2023/10/15 09:55:26;;;;;;;4.30;4.10;;;;;;;;;;5027128;28;20591;-65
2023/10/15 09:57:56;;;;;;;5.93;4.80;;;;;;;;;;5026851;28;20751;-62
2023/10/15 10:00:46;;;;;;;5.23;4.37;;;;;;;;;;5021325;28;20624;-63
2023/10/15 10:03:29;;;;;;;4.80;4.43;;;;;;;;;;5022165;28;20693;-65
2023/10/15 10:06:09;;;;;;;5.40;4.73;;;;;;;;;;5023928;28;21038;-64
2023/10/15 10:08:46;;;;;;;4.90;4.50;;;;;;;;;;5023567;28;20570;-64
2023/10/15 10:11:22;;;;;;;5.07;4.77;;;;;;;;;;5024052;28;20674;-63
2023/10/15 10:14:09;;;;;;;5.37;4.40;;;;;;;;;;5035017;28;20657;-62
2023/10/15 10:16:38;;;;;;;6.20;4.80;;;;;;;;;;5024532;28;20714;-63
2023/10/15 10:19:08;;;;;;;4.67;4.37;;;;;;;;;;5038068;28;21034;-66
2023/10/15 10:21:36;;;;;;;4.60;4.37;;;;;;;;;;5037531;28;20683;-67
2023/10/15 10:24:12;;;;;;;6.53;5.93;;;;;;;;;;5036570;28;20719;-64
2023/10/15 10:26:41;;;;;;;8.30;4.53;;;;;;;;;;5036234;28;20686;-62
2023/10/15 10:29:09;;;;;;;4.83;4.50;;;;;;;;;;5037666;28;20695;-62
2023/10/15 10:31:39;;;;;;;4.47;4.10;;;;;;;;;;5036148;28;21208;-63
2023/10/15 10:34:08;;;;;;;5.10;4.67;;;;;;;;;;5020700;28;20754;-63
2023/10/15 10:36:38;;;;;;;5.73;5.00;;;;;;;;;;5037847;28;20695;-67
2023/10/15 10:39:15;;;;;;;4.93;4.60;;;;;;;;;;5037167;28;20653;-64
2023/10/15 10:41:45;;;;;;;5.20;4.70;;;;;;;;;;5036991;28;20695;-63
2023/10/15 10:44:15;;;;;;;5.07;4.77;;;;;;;;;;5026640;28;20740;-62
2023/10/15 10:46:44;;;;;;;5.07;4.87;;;;;;;;;;5030866;28;20681;-63
2023/10/15 10:49:17;;;;;;;4.80;4.60;;;;;;;;;;5016020;28;20685;-64
2023/10/15 10:52:04;;;;;;;5.50;5.10;;;;;;;;;;5025993;28;20679;-65
2023/10/15 10:54:36;;;;;;;5.30;4.90;;;;;;;;;;5016084;28;20703;-63
2023/10/15 10:57:08;;;;;;;5.40;5.20;;;;;;;;;;5032170;28;21036;-63
2023/10/15 10:59:36;;;;;;;6.03;5.73;;;;;;;;;;5034533;28;20669;-67
2023/10/15 11:02:11;;;;;;;5.20;4.90;;;;;;;;;;5031736;28;21002;-65
2023/10/15 11:04:40;;;;;;;5.47;5.17;;;;;;;;;;5029782;28;20680;-65
2023/10/15 11:07:10;;;;;;;5.30;4.90;;;;;;;;;;5031183;28;20619;-65
2023/10/15 11:09:40;;;;;;;5.60;5.20;;;;;;;;;;5031556;28;21165;-64
2023/10/15 11:12:10;;;;;;;6.23;5.73;;;;;;;;;;5017223;28;20631;-65
2023/10/15 11:14:39;;;;;;;4.63;4.33;;;;;;;;;;5035570;28;20591;-65
2023/10/15 11:17:08;;;;;;;4.97;4.53;;;;;;;;;;5036337;28;21104;-66
2023/10/15 11:19:37;;;;;;;5.77;4.10;;;;;;;;;;5035654;28;20586;-65
2023/10/15 11:22:05;;;;;;;5.43;3.87;;;;;;;;;;5036702;28;20612;-64
2023/10/15 11:24:34;;;;;;;3.93;3.30;;;;;;;;;;5018047;28;20658;-64
2023/10/15 11:27:06;;;;;;;5.37;4.70;;;;;;;;;;5035711;28;20600;-65
2023/10/15 11:29:35;;;;;;;7.23;5.17;;;;;;;;;;5034337;28;20580;-65
2023/10/15 11:32:06;;;;;;;5.30;5.00;;;;;;;;;;5035380;28;20630;-65
2023/10/15 11:34:35;;;;;;;5.60;5.40;;;;;;;;;;5034488;28;20569;-65
2023/10/15 11:37:03;;;;;;;5.53;5.17;;;;;;;;;;5035088;28;21203;-65
2023/10/15 11:39:42;;;;;;;6.47;6.10;;;;;;;;;;5034830;28;21388;-65
2023/10/15 11:42:12;;;;;;;5.30;5.03;;;;;;;;;;5034681;28;20594;-65
2023/10/15 11:44:42;;;;;;;6.30;5.83;;;;;;;;;;5016506;28;20662;-65
2023/10/15 11:47:15;;;;;;;5.33;5.03;;;;;;;;;;5034737;28;21121;-65
2023/10/15 11:49:44;;;;;;;5.50;5.20;;;;;;;;;;5034786;28;20584;-65
2023/10/15 11:52:14;;;;;;;5.50;5.30;;;;;;;;;;5033899;28;20620;-65
2023/10/15 11:54:48;;;;;;;5.53;5.23;;;;;;;;;;5034875;28;20583;-65
2023/10/15 11:57:22;;;;;;;7.10;6.70;;;;;;;;;;5034158;28;20584;-65
2023/10/15 11:59:51;;;;;;;7.07;5.77;;;;;;;;;;5017117;28;20645;-65
2023/10/15 12:02:20;;;;;;;6.60;6.10;;;;;;;;;;5033241;28;20624;-65
2023/10/15 12:04:51;;;;;;;5.30;5.10;;;;;;;;;;5033176;28;20663;-65
2023/10/15 12:07:21;;;;;;;6.00;5.70;;;;;;;;;;5033413;28;20936;-65
2023/10/15 12:09:49;;;;;;;6.17;5.80;;;;;;;;;;5034507;28;20614;-65
2023/10/15 12:12:17;;;;;;;6.40;6.00;;;;;;;;;;5033715;28;20615;-65
2023/10/15 12:14:47;;;;;;;5.93;5.73;;;;;;;;;;5034084;28;21165;-65
2023/10/15 12:17:16;;;;;;;6.83;5.63;;;;;;;;;;5034008;28;20608;-65
2023/10/15 12:19:47;;;;;;;5.70;5.40;;;;;;;;;;5034645;28;20618;-65
2023/10/15 12:22:15;;;;;;;5.73;5.50;;;;;;;;;;5016034;28;20578;-65
2023/10/15 12:24:43;;;;;;;6.93;6.50;;;;;;;;;;5033717;28;20614;-65
2023/10/15 12:27:12;;;;;;;5.60;5.40;;;;;;;;;;5033591;28;20674;-67
2023/10/15 12:29:41;;;;;;;6.10;5.80;;;;;;;;;;5033469;28;20627;-65
2023/10/15 12:32:12;;;;;;;5.70;5.60;;;;;;;;;;5033596;28;20626;-65
2023/10/15 12:34:40;;;;;;;5.97;5.67;;;;;;;;;;5033937;28;20583;-65
2023/10/15 12:37:12;;;;;;;6.57;6.17;;;;;;;;;;5015883;28;20622;-65
2023/10/15 12:39:43;;;;;;;6.63;6.23;;;;;;;;;;5033001;28;21000;-65
2023/10/15 12:42:12;;;;;;;6.00;5.80;;;;;;;;;;5033317;28;20563;-65
2023/10/15 12:44:40;;;;;;;7.00;6.70;;;;;;;;;;5015825;28;20636;-65
2023/10/15 12:47:09;;;;;;;6.10;5.87;;;;;;;;;;5033421;28;21015;-65
2023/10/15 12:49:39;;;;;;;6.37;5.77;;;;;;;;;;5015796;28;21256;-65
2023/10/15 12:52:08;;;;;;;5.70;5.50;;;;;;;;;;5015737;28;21185;-65
2023/10/15 12:54:36;;;;;;;5.77;5.57;;;;;;;;;;5032493;28;20620;-66
2023/10/15 12:57:05;;;;;;;5.40;5.20;;;;;;;;;;5033635;28;20607;-64
2023/10/15 12:59:34;;;;;;;5.83;5.63;;;;;;;;;;5032995;28;20611;-65
2023/10/15 13:02:03;;;;;;;6.03;5.73;;;;;;;;;;5015200;28;20628;-65
2023/10/15 13:04:31;;;;;;;7.40;7.00;;;;;;;;;;5012584;28;20624;-65
2023/10/15 13:07:03;;;;;;;5.83;5.63;;;;;;;;;;5012879;28;20660;-65
2023/10/15 13:09:33;;;;;;;5.83;5.70;;;;;;;;;;4995787;28;20627;-65
2023/10/15 13:12:02;;;;;;;6.13;5.83;;;;;;;;;;5013453;28;20623;-65
2023/10/15 13:14:30;;;;;;;6.23;6.03;;;;;;;;;;5012528;28;20623;-65
2023/10/15 13:16:58;;;;;;;5.87;5.67;;;;;;;;;;5012741;28;21256;-65
2023/10/15 13:19:28;;;;;;;6.80;6.50;;;;;;;;;;5012808;28;20655;-65
2023/10/15 13:21:56;;;;;;;6.03;5.83;;;;;;;;;;5012605;28;20624;-67
2023/10/15 13:24:25;;;;;;;5.90;5.70;;;;;;;;;;5013114;28;20617;-65
2023/10/15 13:26:54;;;;;;;6.30;6.00;;;;;;;;;;5012482;28;21017;-65
2023/10/15 13:29:23;;;;;;;6.60;6.40;;;;;;;;;;5024243;28;20634;-66
2023/10/15 13:31:51;;;;;;;6.30;6.00;;;;;;;;;;5039271;28;20620;-65
2023/10/15 13:34:19;;;;;;;6.10;5.80;;;;;;;;;;5024133;28;21191;-65
2023/10/15 13:36:48;;;;;;;6.10;5.80;;;;;;;;;;5052167;28;20615;-64
2023/10/15 13:39:19;;;;;;;6.60;6.30;;;;;;;;;;5048774;28;20616;-65
2023/10/15 13:41:49;;;;;;;6.10;5.90;;;;;;;;;;5032659;28;20616;-65
2023/10/15 13:44:17;;;;;;;7.03;6.70;;;;;;;;;;5032203;28;20709;-65
2023/10/15 13:46:47;;;;;;;6.20;5.90;;;;;;;;;;5031995;28;20875;-65
2023/10/15 13:49:17;;;;;;;6.00;5.80;;;;;;;;;;5032505;28;20612;-65
2023/10/15 13:51:45;;;;;;;5.93;5.73;;;;;;;;;;5031788;28;20614;-65
2023/10/15 13:54:13;;;;;;;6.00;5.70;;;;;;;;;;5032494;28;20624;-64
2023/10/15 13:56:42;;;;;;;5.80;5.60;;;;;;;;;;5023315;28;20616;-65
2023/10/15 13:59:12;;;;;;;5.67;5.47;;;;;;;;;;5033197;28;20608;-64
2023/10/15 14:01:41;;;;;;;5.70;5.60;;;;;;;;;;5031254;28;21193;-64
2023/10/15 14:04:11;;;;;;;6.10;5.80;;;;;;;;;;5032110;28;21415;-64
2023/10/15 14:06:40;;;;;;;6.07;5.70;;;;;;;;;;5032026;28;20652;-64
2023/10/15 14:09:14;;;;;;;5.70;5.40;;;;;;;;;;5034853;28;20623;-64
2023/10/15 14:11:42;;;;;;;5.80;5.47;;;;;;;;;;5032278;28;20616;-64
2023/10/15 14:14:12;;;;;;;5.47;5.23;;;;;;;;;;5032925;28;20615;-65
2023/10/15 14:16:40;;;;;;;5.77;5.27;;;;;;;;;;5043680;28;20618;-64
2023/10/15 14:19:09;;;;;;;5.20;5.00;;;;;;;;;;5032576;28;20709;-65
2023/10/15 14:21:37;;;;;;;5.63;5.43;;;;;;;;;;5032300;28;20612;-66
2023/10/15 14:24:08;;;;;;;6.10;5.70;;;;;;;;;;5031895;28;21277;-65
2023/10/15 14:26:36;;;;;;;5.73;5.53;;;;;;;;;;5032309;28;20647;-66
2023/10/15 14:29:08;;;;;;;5.90;5.70;;;;;;;;;;5031871;28;20769;-65
2023/10/15 14:31:39;;;;;;;5.90;5.70;;;;;;;;;;5031685;28;21164;-67
2023/10/15 14:34:08;;;;;;;6.00;5.60;;;;;;;;;;5031731;28;21124;-65
2023/10/15 14:36:39;;;;;;;5.83;5.63;;;;;;;;;;5013581;28;20608;-65
2023/10/15 14:39:07;;;;;;;5.90;5.70;;;;;;;;;;5031680;28;20608;-65
2023/10/15 14:41:35;;;;;;;5.63;5.53;;;;;;;;;;5031777;28;20636;-65
2023/10/15 14:44:04;;;;;;;5.40;5.20;;;;;;;;;;5027434;28;21078;-65
2023/10/15 14:46:32;;;;;;;5.40;5.20;;;;;;;;;;5018506;28;20705;-64
2023/10/15 14:49:02;;;;;;;5.47;5.10;;;;;;;;;;5035127;28;20632;-64
2023/10/15 14:51:30;;;;;;;6.20;5.70;;;;;;;;;;5035856;28;20661;-64
2023/10/15 14:53:59;;;;;;;6.50;5.90;;;;;;;;;;5034933;28;20624;-66
2023/10/15 14:56:28;;;;;;;5.73;5.53;;;;;;;;;;5034675;28;20634;-65
2023/10/15 14:58:56;;;;;;;5.63;5.40;;;;;;;;;;5034248;28;20706;-67
2023/10/15 15:01:24;;;;;;;6.20;5.90;;;;;;;;;;5033837;28;21136;-65
2023/10/15 15:03:53;;;;;;;5.27;5.17;;;;;;;;;;5033915;28;20977;-65